sensor_id;sensor_type;location;lat;lon;timestamp;temperature;humidity
18091;DHT22;9172;49.948;9.208;2022-12-13T00:01:50;-2.40;99.90
18091;DHT22;9172;49.948;9.208;2022-12-13T00:04:21;-2.40;99.90
18091;DHT22;9172;49.948;9.208;2022-12-13T00:06:51;-2.50;99.90
18091;DHT22;9172;49.948;9.208;2022-12-13T00:09:21;-2.60;99.90
18091;DHT22;9172;49.948;9.208;2022-12-13T00:11:49;-2.60;99.90
18091;DHT22;9172;49.948;9.208;2022-12-13T00:14:20;-2.60;99.90
18091;DHT22;9172;49.948;9.208;2022-12-13T00:16:49;-2.60;99.90
18091;DHT22;9172;49.948;9.208;2022-12-13T00:19:19;-2.50;99.90
18091;DHT22;9172;49.948;9.208;2022-12-13T00:21:47;-2.60;99.90
18091;DHT22;9172;49.948;9.208;2022-12-13T00:24:17;-2.60;99.90
18091;DHT22;9172;49.948;9.208;2022-12-13T00:26:46;-2.60;99.90
18091;DHT22;9172;49.948;9.208;2022-12-13T00:29:16;-2.60;99.90
18091;DHT22;9172;49.948;9.208;2022-12-13T00:31:45;-2.40;99.90
18091;DHT22;9172;49.948;9.208;2022-12-13T00:34:15;-2.40;99.90
18091;DHT22;9172;49.948;9.208;2022-12-13T00:36:45;-2.30;99.90
18091;DHT22;9172;49.948;9.208;2022-12-13T00:39:14;-2.30;99.90
18091;DHT22;9172;49.948;9.208;2022-12-13T00:41:43;-2.30;99.90
18091;DHT22;9172;49.948;9.208;2022-12-13T00:44:12;-2.40;99.90
18091;DHT22;9172;49.948;9.208;2022-12-13T00:46:42;-2.80;99.90
18091;DHT22;9172;49.948;9.208;2022-12-13T00:49:11;-3.30;99.90
18091;DHT22;9172;49.948;9.208;2022-12-13T00:51:40;-3.50;99.90
18091;DHT22;9172;49.948;9.208;2022-12-13T00:54:10;-3.70;99.90
18091;DHT22;9172;49.948;9.208;2022-12-13T00:56:40;-3.60;99.90
18091;DHT22;9172;49.948;9.208;2022-12-13T00:59:09;-3.80;99.90
18091;DHT22;9172;49.948;9.208;2022-12-13T01:01:40;-3.90;99.90
18091;DHT22;9172;49.948;9.208;2022-12-13T01:04:09;-4.00;99.90
18091;DHT22;9172;49.948;9.208;2022-12-13T01:06:39;-4.00;99.90
18091;DHT22;9172;49.948;9.208;2022-12-13T01:09:13;-4.10;99.90
18091;DHT22;9172;49.948;9.208;2022-12-13T01:11:42;-4.20;99.90
18091;DHT22;9172;49.948;9.208;2022-12-13T01:14:11;-4.20;99.90
18091;DHT22;9172;49.948;9.208;2022-12-13T01:16:40;-4.20;99.90
18091;DHT22;9172;49.948;9.208;2022-12-13T01:19:10;-4.20;99.90
18091;DHT22;9172;49.948;9.208;2022-12-13T01:21:39;-4.20;99.90
18091;DHT22;9172;49.948;9.208;2022-12-13T01:24:08;-4.20;99.90
18091;DHT22;9172;49.948;9.208;2022-12-13T01:26:37;-4.20;99.90
18091;DHT22;9172;49.948;9.208;2022-12-13T01:29:07;-4.20;99.90
18091;DHT22;9172;49.948;9.208;2022-12-13T01:31:37;-4.20;99.90
18091;DHT22;9172;49.948;9.208;2022-12-13T01:34:07;-4.20;99.90
18091;DHT22;9172;49.948;9.208;2022-12-13T01:36:37;-4.10;99.90
18091;DHT22;9172;49.948;9.208;2022-12-13T01:39:05;-3.90;99.90
18091;DHT22;9172;49.948;9.208;2022-12-13T01:41:35;-3.80;99.90
18091;DHT22;9172;49.948;9.208;2022-12-13T01:44:05;-3.60;99.90
18091;DHT22;9172;49.948;9.208;2022-12-13T01:46:34;-3.60;99.90
18091;DHT22;9172;49.948;9.208;2022-12-13T01:49:05;-3.60;99.90
18091;DHT22;9172;49.948;9.208;2022-12-13T01:51:37;-3.80;99.90
18091;DHT22;9172;49.948;9.208;2022-12-13T01:54:17;-4.00;99.90
18091;DHT22;9172;49.948;9.208;2022-12-13T01:56:42;-4.00;99.90
18091;DHT22;9172;49.948;9.208;2022-12-13T01:59:11;-4.00;99.90
18091;DHT22;9172;49.948;9.208;2022-12-13T02:01:40;-3.90;99.90
18091;DHT22;9172;49.948;9.208;2022-12-13T02:04:10;-3.70;99.90
18091;DHT22;9172;49.948;9.208;2022-12-13T02:06:40;-3.50;99.90
18091;DHT22;9172;49.948;9.208;2022-12-13T02:09:11;-3.50;99.90
18091;DHT22;9172;49.948;9.208;2022-12-13T02:11:42;-3.60;99.90
18091;DHT22;9172;49.948;9.208;2022-12-13T02:14:12;-3.50;99.90
18091;DHT22;9172;49.948;9.208;2022-12-13T02:16:47;-3.40;99.90
18091;DHT22;9172;49.948;9.208;2022-12-13T02:19:42;-3.40;99.90
18091;DHT22;9172;49.948;9.208;2022-12-13T02:22:14;-3.30;99.90
18091;DHT22;9172;49.948;9.208;2022-12-13T02:24:51;-3.20;99.90
18091;DHT22;9172;49.948;9.208;2022-12-13T02:27:38;-3.20;99.90
18091;DHT22;9172;49.948;9.208;2022-12-13T02:30:28;-3.20;99.90
18091;DHT22;9172;49.948;9.208;2022-12-13T02:33:22;-3.10;99.90
18091;DHT22;9172;49.948;9.208;2022-12-13T02:35:57;-3.10;99.90
18091;DHT22;9172;49.948;9.208;2022-12-13T02:38:30;-3.10;99.90
18091;DHT22;9172;49.948;9.208;2022-12-13T02:41:04;-3.00;99.90
18091;DHT22;9172;49.948;9.208;2022-12-13T02:43:36;-3.00;99.90
18091;DHT22;9172;49.948;9.208;2022-12-13T02:46:06;-3.00;99.90
18091;DHT22;9172;49.948;9.208;2022-12-13T02:48:37;-3.10;99.90
18091;DHT22;9172;49.948;9.208;2022-12-13T02:51:09;-3.10;99.90
18091;DHT22;9172;49.948;9.208;2022-12-13T02:53:40;-3.10;99.90
18091;DHT22;9172;49.948;9.208;2022-12-13T02:56:10;-3.20;99.90
18091;DHT22;9172;49.948;9.208;2022-12-13T02:58:41;-3.40;99.90
18091;DHT22;9172;49.948;9.208;2022-12-13T03:01:20;-3.90;99.90
18091;DHT22;9172;49.948;9.208;2022-12-13T03:03:52;-4.10;99.90
18091;DHT22;9172;49.948;9.208;2022-12-13T03:06:28;-4.20;99.90
18091;DHT22;9172;49.948;9.208;2022-12-13T03:09:12;-4.00;99.90
18091;DHT22;9172;49.948;9.208;2022-12-13T03:11:51;-3.90;99.90
18091;DHT22;9172;49.948;9.208;2022-12-13T03:14:40;-3.70;99.90
18091;DHT22;9172;49.948;9.208;2022-12-13T03:17:11;-3.60;99.90
18091;DHT22;9172;49.948;9.208;2022-12-13T03:19:41;-3.50;99.90
18091;DHT22;9172;49.948;9.208;2022-12-13T03:22:09;-3.50;99.90
18091;DHT22;9172;49.948;9.208;2022-12-13T03:24:39;-3.40;99.90
18091;DHT22;9172;49.948;9.208;2022-12-13T03:27:08;-3.40;99.90
18091;DHT22;9172;49.948;9.208;2022-12-13T03:29:37;-3.40;99.90
18091;DHT22;9172;49.948;9.208;2022-12-13T03:32:07;-3.40;99.90
18091;DHT22;9172;49.948;9.208;2022-12-13T03:34:36;-3.50;99.90
18091;DHT22;9172;49.948;9.208;2022-12-13T03:37:04;-3.50;99.90
18091;DHT22;9172;49.948;9.208;2022-12-13T03:39:33;-3.60;99.90
18091;DHT22;9172;49.948;9.208;2022-12-13T03:42:03;-3.60;99.90
18091;DHT22;9172;49.948;9.208;2022-12-13T03:44:31;-3.60;99.90
18091;DHT22;9172;49.948;9.208;2022-12-13T03:47:01;-3.60;99.90
18091;DHT22;9172;49.948;9.208;2022-12-13T03:49:31;-3.50;99.90
18091;DHT22;9172;49.948;9.208;2022-12-13T03:52:00;-3.50;99.90
18091;DHT22;9172;49.948;9.208;2022-12-13T03:54:30;-3.60;99.90
18091;DHT22;9172;49.948;9.208;2022-12-13T03:57:00;-3.60;99.90
18091;DHT22;9172;49.948;9.208;2022-12-13T03:59:29;-3.60;99.90
18091;DHT22;9172;49.948;9.208;2022-12-13T04:01:57;-3.60;99.90
18091;DHT22;9172;49.948;9.208;2022-12-13T04:04:27;-3.50;99.90
18091;DHT22;9172;49.948;9.208;2022-12-13T04:06:56;-3.60;99.90
18091;DHT22;9172;49.948;9.208;2022-12-13T04:09:25;-3.60;99.90
18091;DHT22;9172;49.948;9.208;2022-12-13T04:11:53;-3.60;99.90
18091;DHT22;9172;49.948;9.208;2022-12-13T04:17:35;-4.00;99.90
18091;DHT22;9172;49.948;9.208;2022-12-13T04:20:06;-4.30;99.90
18091;DHT22;9172;49.948;9.208;2022-12-13T04:22:35;-4.30;99.90
18091;DHT22;9172;49.948;9.208;2022-12-13T04:25:04;-4.40;99.90
18091;DHT22;9172;49.948;9.208;2022-12-13T04:27:34;-4.40;99.90
18091;DHT22;9172;49.948;9.208;2022-12-13T04:30:06;-4.60;99.90
18091;DHT22;9172;49.948;9.208;2022-12-13T04:32:35;-4.50;99.90
18091;DHT22;9172;49.948;9.208;2022-12-13T04:35:04;-4.50;99.90
18091;DHT22;9172;49.948;9.208;2022-12-13T04:37:34;-4.60;99.90
18091;DHT22;9172;49.948;9.208;2022-12-13T04:40:06;-4.50;99.90
18091;DHT22;9172;49.948;9.208;2022-12-13T04:42:35;-4.40;99.90
18091;DHT22;9172;49.948;9.208;2022-12-13T04:45:05;-4.20;99.90
18091;DHT22;9172;49.948;9.208;2022-12-13T04:47:35;-4.00;99.90
18091;DHT22;9172;49.948;9.208;2022-12-13T04:50:05;-3.90;99.90
18091;DHT22;9172;49.948;9.208;2022-12-13T04:52:34;-3.90;99.90
18091;DHT22;9172;49.948;9.208;2022-12-13T04:55:04;-3.80;99.90
18091;DHT22;9172;49.948;9.208;2022-12-13T04:57:33;-3.80;99.90
18091;DHT22;9172;49.948;9.208;2022-12-13T05:00:03;-3.80;99.90
18091;DHT22;9172;49.948;9.208;2022-12-13T05:02:33;-3.70;99.90
18091;DHT22;9172;49.948;9.208;2022-12-13T05:05:02;-3.70;99.90
18091;DHT22;9172;49.948;9.208;2022-12-13T05:07:31;-3.70;99.90
18091;DHT22;9172;49.948;9.208;2022-12-13T05:10:00;-3.70;99.90
18091;DHT22;9172;49.948;9.208;2022-12-13T05:12:31;-3.60;99.90
18091;DHT22;9172;49.948;9.208;2022-12-13T05:15:00;-3.60;99.90
18091;DHT22;9172;49.948;9.208;2022-12-13T05:17:29;-3.60;99.90
18091;DHT22;9172;49.948;9.208;2022-12-13T05:19:58;-3.60;99.90
18091;DHT22;9172;49.948;9.208;2022-12-13T05:22:29;-3.60;99.90
18091;DHT22;9172;49.948;9.208;2022-12-13T05:24:58;-3.70;99.90
18091;DHT22;9172;49.948;9.208;2022-12-13T05:27:29;-3.70;99.90
18091;DHT22;9172;49.948;9.208;2022-12-13T05:29:57;-3.80;99.90
18091;DHT22;9172;49.948;9.208;2022-12-13T05:32:27;-3.80;99.90
18091;DHT22;9172;49.948;9.208;2022-12-13T05:34:56;-3.80;99.90
18091;DHT22;9172;49.948;9.208;2022-12-13T05:37:25;-3.80;99.90
18091;DHT22;9172;49.948;9.208;2022-12-13T05:39:55;-4.20;99.90
18091;DHT22;9172;49.948;9.208;2022-12-13T05:42:24;-4.40;99.90
18091;DHT22;9172;49.948;9.208;2022-12-13T05:44:52;-4.40;99.90
18091;DHT22;9172;49.948;9.208;2022-12-13T05:47:21;-4.20;99.90
18091;DHT22;9172;49.948;9.208;2022-12-13T05:49:49;-4.10;99.90
18091;DHT22;9172;49.948;9.208;2022-12-13T05:52:20;-4.00;99.90
18091;DHT22;9172;49.948;9.208;2022-12-13T05:54:53;-4.00;99.90
18091;DHT22;9172;49.948;9.208;2022-12-13T05:57:23;-4.00;99.90
18091;DHT22;9172;49.948;9.208;2022-12-13T05:59:51;-4.10;99.90
18091;DHT22;9172;49.948;9.208;2022-12-13T06:02:20;-4.10;99.90
18091;DHT22;9172;49.948;9.208;2022-12-13T06:04:49;-4.20;99.90
18091;DHT22;9172;49.948;9.208;2022-12-13T06:07:18;-4.10;99.90
18091;DHT22;9172;49.948;9.208;2022-12-13T06:09:47;-4.00;99.90
18091;DHT22;9172;49.948;9.208;2022-12-13T06:12:15;-4.00;99.90
18091;DHT22;9172;49.948;9.208;2022-12-13T06:17:21;-4.00;99.90
18091;DHT22;9172;49.948;9.208;2022-12-13T06:19:51;-4.00;99.90
18091;DHT22;9172;49.948;9.208;2022-12-13T06:24:56;-3.90;99.90
18091;DHT22;9172;49.948;9.208;2022-12-13T06:27:25;-4.00;99.90
18091;DHT22;9172;49.948;9.208;2022-12-13T06:29:55;-4.00;99.90
18091;DHT22;9172;49.948;9.208;2022-12-13T06:32:24;-3.90;99.90
18091;DHT22;9172;49.948;9.208;2022-12-13T06:34:52;-3.90;99.90
18091;DHT22;9172;49.948;9.208;2022-12-13T06:39:57;-4.00;99.90
18091;DHT22;9172;49.948;9.208;2022-12-13T06:42:26;-4.00;99.90
18091;DHT22;9172;49.948;9.208;2022-12-13T06:44:55;-4.00;99.90
18091;DHT22;9172;49.948;9.208;2022-12-13T06:47:24;-4.00;99.90
18091;DHT22;9172;49.948;9.208;2022-12-13T06:49:54;-4.00;99.90
18091;DHT22;9172;49.948;9.208;2022-12-13T06:52:23;-4.00;99.90
18091;DHT22;9172;49.948;9.208;2022-12-13T06:54:53;-4.00;99.90
18091;DHT22;9172;49.948;9.208;2022-12-13T06:57:22;-4.00;99.90
18091;DHT22;9172;49.948;9.208;2022-12-13T06:59:51;-4.00;99.90
18091;DHT22;9172;49.948;9.208;2022-12-13T07:02:20;-4.00;99.90
18091;DHT22;9172;49.948;9.208;2022-12-13T07:04:48;-4.00;99.90
18091;DHT22;9172;49.948;9.208;2022-12-13T07:07:18;-4.00;99.90
18091;DHT22;9172;49.948;9.208;2022-12-13T07:09:46;-4.10;99.90
18091;DHT22;9172;49.948;9.208;2022-12-13T07:12:16;-4.10;99.90
18091;DHT22;9172;49.948;9.208;2022-12-13T07:14:47;-4.10;99.90
18091;DHT22;9172;49.948;9.208;2022-12-13T07:17:16;-4.50;99.90
18091;DHT22;9172;49.948;9.208;2022-12-13T07:19:45;-4.90;99.90
18091;DHT22;9172;49.948;9.208;2022-12-13T07:22:14;-5.30;99.90
18091;DHT22;9172;49.948;9.208;2022-12-13T07:24:43;-5.30;99.90
18091;DHT22;9172;49.948;9.208;2022-12-13T07:27:12;-5.10;99.90
18091;DHT22;9172;49.948;9.208;2022-12-13T07:29:43;-4.90;99.90
18091;DHT22;9172;49.948;9.208;2022-12-13T07:32:11;-4.70;99.90
18091;DHT22;9172;49.948;9.208;2022-12-13T07:34:40;-4.50;99.90
18091;DHT22;9172;49.948;9.208;2022-12-13T07:37:09;-4.40;99.90
18091;DHT22;9172;49.948;9.208;2022-12-13T07:39:37;-4.40;99.90
18091;DHT22;9172;49.948;9.208;2022-12-13T07:42:06;-4.30;99.90
18091;DHT22;9172;49.948;9.208;2022-12-13T07:44:34;-4.30;99.90
18091;DHT22;9172;49.948;9.208;2022-12-13T07:47:03;-4.30;99.90
18091;DHT22;9172;49.948;9.208;2022-12-13T07:49:34;-4.30;99.90
18091;DHT22;9172;49.948;9.208;2022-12-13T07:52:03;-4.30;99.90
18091;DHT22;9172;49.948;9.208;2022-12-13T07:54:31;-4.30;99.90
18091;DHT22;9172;49.948;9.208;2022-12-13T07:57:00;-4.30;99.90
18091;DHT22;9172;49.948;9.208;2022-12-13T07:59:29;-4.30;99.90
18091;DHT22;9172;49.948;9.208;2022-12-13T08:01:58;-4.30;99.90
18091;DHT22;9172;49.948;9.208;2022-12-13T08:04:27;-4.30;99.90
18091;DHT22;9172;49.948;9.208;2022-12-13T08:06:56;-4.30;99.90
18091;DHT22;9172;49.948;9.208;2022-12-13T08:09:24;-4.30;99.90
18091;DHT22;9172;49.948;9.208;2022-12-13T08:11:56;-4.30;99.90
18091;DHT22;9172;49.948;9.208;2022-12-13T08:14:26;-4.30;99.90
18091;DHT22;9172;49.948;9.208;2022-12-13T08:16:56;-4.20;99.90
18091;DHT22;9172;49.948;9.208;2022-12-13T08:19:24;-4.20;99.90
18091;DHT22;9172;49.948;9.208;2022-12-13T08:21:53;-4.10;99.90
18091;DHT22;9172;49.948;9.208;2022-12-13T08:24:23;-4.00;99.90
18091;DHT22;9172;49.948;9.208;2022-12-13T08:26:52;-3.90;99.90
18091;DHT22;9172;49.948;9.208;2022-12-13T08:29:22;-3.80;99.90
18091;DHT22;9172;49.948;9.208;2022-12-13T08:31:51;-4.20;99.90
18091;DHT22;9172;49.948;9.208;2022-12-13T08:34:20;-3.70;99.90
18091;DHT22;9172;49.948;9.208;2022-12-13T08:36:50;-3.80;99.90
18091;DHT22;9172;49.948;9.208;2022-12-13T08:39:20;-3.70;99.90
18091;DHT22;9172;49.948;9.208;2022-12-13T08:41:49;-3.60;99.90
18091;DHT22;9172;49.948;9.208;2022-12-13T08:44:19;-3.60;99.90
18091;DHT22;9172;49.948;9.208;2022-12-13T08:46:48;-3.60;99.90
18091;DHT22;9172;49.948;9.208;2022-12-13T08:49:17;-3.50;99.90
18091;DHT22;9172;49.948;9.208;2022-12-13T08:51:45;-3.40;99.90
18091;DHT22;9172;49.948;9.208;2022-12-13T08:54:15;-3.40;99.90
18091;DHT22;9172;49.948;9.208;2022-12-13T08:56:44;-3.20;99.90
18091;DHT22;9172;49.948;9.208;2022-12-13T08:59:13;-3.00;99.90
18091;DHT22;9172;49.948;9.208;2022-12-13T09:01:42;-2.90;99.90
18091;DHT22;9172;49.948;9.208;2022-12-13T09:04:12;-2.80;99.90
18091;DHT22;9172;49.948;9.208;2022-12-13T09:06:42;-2.70;99.90
18091;DHT22;9172;49.948;9.208;2022-12-13T09:09:11;-2.60;99.90
18091;DHT22;9172;49.948;9.208;2022-12-13T09:11:40;-2.50;99.90
18091;DHT22;9172;49.948;9.208;2022-12-13T09:14:09;-2.50;99.90
18091;DHT22;9172;49.948;9.208;2022-12-13T09:16:38;-2.40;99.90
18091;DHT22;9172;49.948;9.208;2022-12-13T09:19:07;-2.40;99.90
18091;DHT22;9172;49.948;9.208;2022-12-13T09:21:36;-2.30;99.90
18091;DHT22;9172;49.948;9.208;2022-12-13T09:24:05;-2.20;99.90
18091;DHT22;9172;49.948;9.208;2022-12-13T09:26:33;-2.10;99.90
18091;DHT22;9172;49.948;9.208;2022-12-13T09:29:02;-2.00;99.90
18091;DHT22;9172;49.948;9.208;2022-12-13T09:31:31;-2.00;99.90
18091;DHT22;9172;49.948;9.208;2022-12-13T09:34:04;-1.90;99.90
18091;DHT22;9172;49.948;9.208;2022-12-13T09:36:34;-1.80;99.90
18091;DHT22;9172;49.948;9.208;2022-12-13T09:39:03;-1.70;99.90
18091;DHT22;9172;49.948;9.208;2022-12-13T09:41:34;-1.60;99.90
18091;DHT22;9172;49.948;9.208;2022-12-13T09:44:06;-1.50;99.90
18091;DHT22;9172;49.948;9.208;2022-12-13T09:46:37;-1.40;99.90
18091;DHT22;9172;49.948;9.208;2022-12-13T09:49:10;-1.30;99.90
18091;DHT22;9172;49.948;9.208;2022-12-13T09:51:41;-1.30;99.90
18091;DHT22;9172;49.948;9.208;2022-12-13T09:54:16;-1.20;99.90
18091;DHT22;9172;49.948;9.208;2022-12-13T09:56:45;-1.30;99.90
18091;DHT22;9172;49.948;9.208;2022-12-13T09:59:17;-1.30;99.90
18091;DHT22;9172;49.948;9.208;2022-12-13T10:01:46;-1.60;99.90
18091;DHT22;9172;49.948;9.208;2022-12-13T10:04:14;-1.60;99.90
18091;DHT22;9172;49.948;9.208;2022-12-13T10:06:43;-1.70;99.90
18091;DHT22;9172;49.948;9.208;2022-12-13T10:09:13;-1.70;99.90
18091;DHT22;9172;49.948;9.208;2022-12-13T10:11:48;-1.70;99.90
18091;DHT22;9172;49.948;9.208;2022-12-13T10:14:20;-1.70;99.90
18091;DHT22;9172;49.948;9.208;2022-12-13T10:16:53;-1.80;99.90
18091;DHT22;9172;49.948;9.208;2022-12-13T10:19:26;-1.80;99.90
18091;DHT22;9172;49.948;9.208;2022-12-13T10:21:56;-1.90;99.90
18091;DHT22;9172;49.948;9.208;2022-12-13T10:24:28;-1.90;99.90
18091;DHT22;9172;49.948;9.208;2022-12-13T10:26:58;-1.90;99.90
18091;DHT22;9172;49.948;9.208;2022-12-13T10:29:29;-1.80;99.90
18091;DHT22;9172;49.948;9.208;2022-12-13T10:31:58;-1.80;99.90
18091;DHT22;9172;49.948;9.208;2022-12-13T10:34:29;-1.80;99.90
18091;DHT22;9172;49.948;9.208;2022-12-13T10:36:58;-1.70;99.90
18091;DHT22;9172;49.948;9.208;2022-12-13T10:39:38;-1.60;99.90
18091;DHT22;9172;49.948;9.208;2022-12-13T10:42:12;-1.60;99.90
18091;DHT22;9172;49.948;9.208;2022-12-13T10:44:40;-1.60;99.90
18091;DHT22;9172;49.948;9.208;2022-12-13T10:47:16;-1.50;99.90
18091;DHT22;9172;49.948;9.208;2022-12-13T10:49:50;-1.30;99.90
18091;DHT22;9172;49.948;9.208;2022-12-13T10:52:32;-1.10;99.90
18091;DHT22;9172;49.948;9.208;2022-12-13T10:55:03;-1.20;99.90
18091;DHT22;9172;49.948;9.208;2022-12-13T10:57:32;-1.00;99.90
18091;DHT22;9172;49.948;9.208;2022-12-13T11:00:01;-0.90;99.90
18091;DHT22;9172;49.948;9.208;2022-12-13T11:02:33;-0.60;99.90
18091;DHT22;9172;49.948;9.208;2022-12-13T11:05:22;-0.50;99.90
18091;DHT22;9172;49.948;9.208;2022-12-13T11:07:51;-0.30;99.90
18091;DHT22;9172;49.948;9.208;2022-12-13T11:10:25;-0.10;99.90
18091;DHT22;9172;49.948;9.208;2022-12-13T11:12:56;0.00;99.90
18091;DHT22;9172;49.948;9.208;2022-12-13T11:15:27;0.20;99.90
18091;DHT22;9172;49.948;9.208;2022-12-13T11:17:59;0.30;99.90
18091;DHT22;9172;49.948;9.208;2022-12-13T11:20:31;0.20;99.90
18091;DHT22;9172;49.948;9.208;2022-12-13T11:23:03;0.30;99.90
18091;DHT22;9172;49.948;9.208;2022-12-13T11:25:37;0.50;99.90
18091;DHT22;9172;49.948;9.208;2022-12-13T11:28:15;0.60;99.90
18091;DHT22;9172;49.948;9.208;2022-12-13T11:30:45;0.70;99.90
18091;DHT22;9172;49.948;9.208;2022-12-13T11:33:19;0.70;99.90
18091;DHT22;9172;49.948;9.208;2022-12-13T11:36:01;0.80;99.90
18091;DHT22;9172;49.948;9.208;2022-12-13T11:38:35;0.80;99.90
18091;DHT22;9172;49.948;9.208;2022-12-13T11:41:07;0.80;99.90
18091;DHT22;9172;49.948;9.208;2022-12-13T11:43:40;0.90;99.90
18091;DHT22;9172;49.948;9.208;2022-12-13T11:46:14;0.90;99.90
18091;DHT22;9172;49.948;9.208;2022-12-13T11:48:46;0.90;99.90
18091;DHT22;9172;49.948;9.208;2022-12-13T11:51:18;0.90;99.90
18091;DHT22;9172;49.948;9.208;2022-12-13T11:53:51;0.90;99.90
18091;DHT22;9172;49.948;9.208;2022-12-13T11:56:24;0.90;99.90
18091;DHT22;9172;49.948;9.208;2022-12-13T11:58:59;0.90;99.90
18091;DHT22;9172;49.948;9.208;2022-12-13T12:01:33;0.90;99.90
18091;DHT22;9172;49.948;9.208;2022-12-13T12:04:05;0.90;99.90
18091;DHT22;9172;49.948;9.208;2022-12-13T12:06:40;0.90;99.90
18091;DHT22;9172;49.948;9.208;2022-12-13T12:09:12;0.90;99.90
18091;DHT22;9172;49.948;9.208;2022-12-13T12:11:45;0.90;99.90
18091;DHT22;9172;49.948;9.208;2022-12-13T12:14:18;0.90;99.90
18091;DHT22;9172;49.948;9.208;2022-12-13T12:16:50;0.90;99.90
18091;DHT22;9172;49.948;9.208;2022-12-13T12:19:21;1.00;99.90
18091;DHT22;9172;49.948;9.208;2022-12-13T12:22:18;0.90;99.90
18091;DHT22;9172;49.948;9.208;2022-12-13T12:24:54;0.90;99.90
18091;DHT22;9172;49.948;9.208;2022-12-13T12:27:30;0.80;99.90
18091;DHT22;9172;49.948;9.208;2022-12-13T12:30:12;0.80;99.90
18091;DHT22;9172;49.948;9.208;2022-12-13T12:32:45;0.70;99.90
18091;DHT22;9172;49.948;9.208;2022-12-13T12:35:48;0.70;99.90
18091;DHT22;9172;49.948;9.208;2022-12-13T12:38:36;0.60;99.90
18091;DHT22;9172;49.948;9.208;2022-12-13T12:41:11;0.60;99.90
18091;DHT22;9172;49.948;9.208;2022-12-13T12:43:42;0.60;99.90
18091;DHT22;9172;49.948;9.208;2022-12-13T12:46:24;0.60;99.90
18091;DHT22;9172;49.948;9.208;2022-12-13T12:49:11;0.60;99.90
18091;DHT22;9172;49.948;9.208;2022-12-13T12:51:43;0.60;99.90
18091;DHT22;9172;49.948;9.208;2022-12-13T12:54:21;0.60;99.90
18091;DHT22;9172;49.948;9.208;2022-12-13T12:56:52;0.40;99.90
18091;DHT22;9172;49.948;9.208;2022-12-13T12:59:24;0.40;99.90
18091;DHT22;9172;49.948;9.208;2022-12-13T13:01:56;0.30;99.90
18091;DHT22;9172;49.948;9.208;2022-12-13T13:04:28;0.30;99.90
18091;DHT22;9172;49.948;9.208;2022-12-13T13:07:01;0.20;99.90
18091;DHT22;9172;49.948;9.208;2022-12-13T13:09:31;0.10;99.90
18091;DHT22;9172;49.948;9.208;2022-12-13T13:12:04;0.10;99.90
18091;DHT22;9172;49.948;9.208;2022-12-13T13:14:34;0.00;99.90
18091;DHT22;9172;49.948;9.208;2022-12-13T13:20:23;0.00;99.90
18091;DHT22;9172;49.948;9.208;2022-12-13T13:22:53;0.00;99.90
18091;DHT22;9172;49.948;9.208;2022-12-13T13:25:30;-0.10;99.90
18091;DHT22;9172;49.948;9.208;2022-12-13T13:28:09;-0.10;99.90
18091;DHT22;9172;49.948;9.208;2022-12-13T13:31:00;-0.10;99.90
18091;DHT22;9172;49.948;9.208;2022-12-13T13:33:14;-0.20;99.90
18091;DHT22;9172;49.948;9.208;2022-12-13T13:35:48;-0.20;99.90
18091;DHT22;9172;49.948;9.208;2022-12-13T13:41:45;-0.20;99.90
18091;DHT22;9172;49.948;9.208;2022-12-13T13:47:14;-0.30;99.90
18091;DHT22;9172;49.948;9.208;2022-12-13T13:52:20;-0.40;99.90
18091;DHT22;9172;49.948;9.208;2022-12-13T13:55:05;-0.40;99.90
18091;DHT22;9172;49.948;9.208;2022-12-13T14:00:48;-0.40;99.90
18091;DHT22;9172;49.948;9.208;2022-12-13T14:22:07;-0.60;99.90
18091;DHT22;9172;49.948;9.208;2022-12-13T14:24:44;-0.60;99.90
18091;DHT22;9172;49.948;9.208;2022-12-13T14:29:55;-0.70;99.90
18091;DHT22;9172;49.948;9.208;2022-12-13T14:35:02;-0.80;99.90
18091;DHT22;9172;49.948;9.208;2022-12-13T14:40:24;-0.80;99.90
18091;DHT22;9172;49.948;9.208;2022-12-13T14:45:32;-1.00;99.90
18091;DHT22;9172;49.948;9.208;2022-12-13T14:50:44;-0.90;99.90
18091;DHT22;9172;49.948;9.208;2022-12-13T14:56:06;-1.00;99.90
18091;DHT22;9172;49.948;9.208;2022-12-13T14:58:36;-1.10;99.90
18091;DHT22;9172;49.948;9.208;2022-12-13T15:01:21;-1.20;99.90
18091;DHT22;9172;49.948;9.208;2022-12-13T15:03:36;-1.20;99.90
18091;DHT22;9172;49.948;9.208;2022-12-13T15:08:47;-1.20;99.90
18091;DHT22;9172;49.948;9.208;2022-12-13T15:11:16;-0.20;99.90
18091;DHT22;9172;49.948;9.208;2022-12-13T15:13:47;-1.20;99.90
18091;DHT22;9172;49.948;9.208;2022-12-13T15:19:05;-1.30;99.90
18091;DHT22;9172;49.948;9.208;2022-12-13T15:24:12;-1.40;99.90
18091;DHT22;9172;49.948;9.208;2022-12-13T15:29:20;-1.40;99.90
18091;DHT22;9172;49.948;9.208;2022-12-13T15:31:50;-1.50;99.90
18091;DHT22;9172;49.948;9.208;2022-12-13T15:37:21;-1.50;99.90
18091;DHT22;9172;49.948;9.208;2022-12-13T15:42:31;-1.50;99.90
18091;DHT22;9172;49.948;9.208;2022-12-13T15:45:03;-1.60;99.90
18091;DHT22;9172;49.948;9.208;2022-12-13T15:50:30;-1.70;99.90
18091;DHT22;9172;49.948;9.208;2022-12-13T15:53:02;-1.70;99.90
18091;DHT22;9172;49.948;9.208;2022-12-13T15:58:23;-1.70;99.90
18091;DHT22;9172;49.948;9.208;2022-12-13T16:00:54;-1.80;99.90
18091;DHT22;9172;49.948;9.208;2022-12-13T16:03:26;-1.70;99.90
18091;DHT22;9172;49.948;9.208;2022-12-13T16:05:56;-1.70;99.90
18091;DHT22;9172;49.948;9.208;2022-12-13T16:08:27;-1.70;99.90
18091;DHT22;9172;49.948;9.208;2022-12-13T16:10:57;-1.70;99.90
18091;DHT22;9172;49.948;9.208;2022-12-13T16:13:28;-1.80;99.90
18091;DHT22;9172;49.948;9.208;2022-12-13T16:15:58;-1.80;99.90
18091;DHT22;9172;49.948;9.208;2022-12-13T16:18:31;-1.80;99.90
18091;DHT22;9172;49.948;9.208;2022-12-13T16:21:00;-1.80;99.90
18091;DHT22;9172;49.948;9.208;2022-12-13T16:23:29;-1.80;99.90
18091;DHT22;9172;49.948;9.208;2022-12-13T16:25:58;-1.80;99.90
18091;DHT22;9172;49.948;9.208;2022-12-13T16:28:26;-1.90;99.90
18091;DHT22;9172;49.948;9.208;2022-12-13T16:31:03;-1.80;99.90
18091;DHT22;9172;49.948;9.208;2022-12-13T16:33:33;-1.80;99.90
18091;DHT22;9172;49.948;9.208;2022-12-13T16:36:03;-1.80;99.90
18091;DHT22;9172;49.948;9.208;2022-12-13T16:38:32;-1.90;99.90
18091;DHT22;9172;49.948;9.208;2022-12-13T16:41:02;-1.90;99.90
18091;DHT22;9172;49.948;9.208;2022-12-13T16:43:32;-1.90;99.90
18091;DHT22;9172;49.948;9.208;2022-12-13T16:46:03;-1.90;99.90
18091;DHT22;9172;49.948;9.208;2022-12-13T16:48:32;-1.90;99.90
18091;DHT22;9172;49.948;9.208;2022-12-13T16:51:01;-1.90;99.90
18091;DHT22;9172;49.948;9.208;2022-12-13T16:53:31;-2.10;99.90
18091;DHT22;9172;49.948;9.208;2022-12-13T16:56:01;-2.00;99.90
18091;DHT22;9172;49.948;9.208;2022-12-13T16:58:29;-2.00;99.90
18091;DHT22;9172;49.948;9.208;2022-12-13T17:01:00;-1.90;99.90
18091;DHT22;9172;49.948;9.208;2022-12-13T17:03:29;-2.00;99.90
18091;DHT22;9172;49.948;9.208;2022-12-13T17:05:58;-2.00;99.90
18091;DHT22;9172;49.948;9.208;2022-12-13T17:08:27;-2.00;99.90
18091;DHT22;9172;49.948;9.208;2022-12-13T17:10:57;-2.10;99.90
18091;DHT22;9172;49.948;9.208;2022-12-13T17:13:26;-2.10;99.90
18091;DHT22;9172;49.948;9.208;2022-12-13T17:15:54;-2.00;99.90
18091;DHT22;9172;49.948;9.208;2022-12-13T17:18:23;-2.10;99.90
18091;DHT22;9172;49.948;9.208;2022-12-13T17:20:51;-2.20;99.90
18091;DHT22;9172;49.948;9.208;2022-12-13T17:23:21;-2.10;99.90
18091;DHT22;9172;49.948;9.208;2022-12-13T17:25:49;-2.10;99.90
18091;DHT22;9172;49.948;9.208;2022-12-13T17:28:19;-2.10;99.90
18091;DHT22;9172;49.948;9.208;2022-12-13T17:30:47;-2.00;99.90
18091;DHT22;9172;49.948;9.208;2022-12-13T17:33:17;-2.00;99.90
18091;DHT22;9172;49.948;9.208;2022-12-13T17:35:47;-2.10;99.90